Terminal Aerodrome Forecast
Issued by NWS

Home | Current Version | Previous Version | Text Only | Print | Product List | Glossary On
Versions: 1 2 3 4 5 6 7 8 9 10 11 12 13 14 15 16 17 18 19 20 21 22 23 24 25 26 27 28 29 30 31 32 33 34 35 36
752
FTUS41 KGYX 221310 AAC
TAFLEB
TAF AMD
KLEB 221310Z 2213/2312 00000KT 6SM BR SCT004
     FM221330 18004KT P6SM SCT250
     FM221600 20008KT P6SM BKN090
     FM221900 21009KT 5SM -SHRA BKN045 BKN090
      TEMPO 2219/2223 1SM +TSRA OVC015CB
     FM222300 21009KT 5SM -SHRA OVC045 PROB30 2301/2304 3SM -TSRA
      OVC020CB=

USA.gov is the U.S. government's official web portal to all federal, state and local government web resources and services.